Time;durP1;ratioP1;P1;durP2;ratioP2;P2;SDS_P1;SDS_P2;PMS_P1;PMS_P2;Temp;Humidity;BMP_temperature;BMP_pressure;BME280_temperature;BME280_humidity;BME280_pressure;Samples;Min_cycle;Max_cycle;Signal;HPM_P1;HPM_P2
2021/04/14 00:00:23;;;;;;;3.10;1.80;;;;;;;6.01;54.02;102251.91;689767;28;1166;-52
2021/04/14 00:00:44;;;;;;;3.47;1.70;;;;;;;6.02;54.26;102250.91;684864;28;129258;-54
2021/04/14 00:01:06;;;;;;;2.35;2.00;;;;;;;6.01;54.07;102250.06;689022;28;23885;-55
2021/04/14 00:01:27;;;;;;;2.10;1.90;;;;;;;6.02;54.10;102253.59;687355;28;44394;-53
2021/04/14 00:01:49;;;;;;;2.53;1.98;;;;;;;6.01;54.02;102250.06;687001;28;22154;-56
2021/04/14 00:02:10;;;;;;;3.30;1.90;;;;;;;6.03;54.05;102253.47;687264;28;44114;-51
2021/04/14 00:02:31;;;;;;;2.40;1.80;;;;;;;6.04;54.11;102249.84;689009;28;14759;-51
2021/04/14 00:02:52;;;;;;;1.85;1.70;;;;;;;6.05;53.88;102256.94;689636;28;20935;-56
2021/04/14 00:03:17;;;;;;;2.60;2.08;;;;;;;6.05;53.66;102254.25;687814;28;23511;-53
2021/04/14 00:03:38;;;;;;;3.80;2.10;;;;;;;6.05;53.83;102248.00;684037;28;115745;-54
2021/04/14 00:03:59;;;;;;;2.05;1.90;;;;;;;6.03;53.71;102258.84;689421;28;2008;-51
2021/04/14 00:04:20;;;;;;;2.95;1.90;;;;;;;6.04;53.70;102252.53;689677;28;3202;-56
2021/04/14 00:04:42;;;;;;;2.85;1.80;;;;;;;6.04;53.75;102252.53;689026;28;21531;-54
2021/04/14 00:05:05;;;;;;;1.73;1.58;;;;;;;6.04;53.51;102252.53;688153;28;46155;-53
2021/04/14 00:05:30;;;;;;;3.38;1.60;;;;;;;6.04;53.46;102251.69;685371;28;92306;-53
2021/04/14 00:05:52;;;;;;;3.15;1.50;;;;;;;6.04;53.34;102251.69;686041;28;90329;-50
2021/04/14 00:06:14;;;;;;;2.05;1.73;;;;;;;6.04;53.46;102252.53;688168;28;47241;-54
2021/04/14 00:06:36;;;;;;;3.20;1.80;;;;;;;6.03;53.41;102258.00;686554;28;46198;-53
2021/04/14 00:06:58;;;;;;;1.83;1.58;;;;;;;6.02;53.47;102254.47;686681;28;46307;-54
2021/04/14 00:07:20;;;;;;;1.73;1.58;;;;;;;6.03;53.54;102250.81;685723;28;33413;-51
2021/04/14 00:07:42;;;;;;;2.25;1.50;;;;;;;6.03;53.38;102250.81;685026;28;43673;-55
2021/04/14 00:08:03;;;;;;;3.78;1.63;;;;;;;6.02;53.37;102257.16;685384;28;47451;-52
2021/04/14 00:08:27;;;;;;;2.05;1.50;;;;;;;6.02;53.28;102254.47;684918;28;47498;-55
2021/04/14 00:08:48;;;;;;;1.90;1.50;;;;;;;6.02;53.30;102248.22;684278;28;66945;-56
2021/04/14 00:09:10;;;;;;;1.70;1.50;;;;;;;5.99;53.22;102246.66;684489;28;46803;-50
2021/04/14 00:09:31;;;;;;;1.70;1.60;;;;;;;6.02;53.16;102250.91;685409;28;22506;-55
2021/04/14 00:09:52;;;;;;;1.52;1.40;;;;;;;6.02;53.25;102253.59;688150;28;23409;-50
2021/04/14 00:10:14;;;;;;;2.00;1.40;;;;;;;6.01;53.14;102258.13;688734;28;22401;-52
2021/04/14 00:10:36;;;;;;;2.10;1.70;;;;;;;6.00;53.33;102250.19;687020;28;69432;-54
2021/04/14 00:10:57;;;;;;;2.30;1.65;;;;;;;6.00;53.02;102252.84;688655;28;18537;-55
2021/04/14 00:11:20;;;;;;;2.28;1.58;;;;;;;5.99;53.16;102248.44;689060;28;22576;-54
2021/04/14 00:11:41;;;;;;;3.42;1.50;;;;;;;6.00;53.25;102247.50;686842;28;70441;-56
2021/04/14 00:12:03;;;;;;;2.63;1.60;;;;;;;5.99;53.06;102253.81;687263;28;45225;-56
2021/04/14 00:12:24;;;;;;;2.53;1.80;;;;;;;5.98;53.07;102252.13;685371;28;23453;-54
2021/04/14 00:12:45;;;;;;;2.13;1.65;;;;;;;5.97;53.11;102250.38;685557;28;23471;-53
2021/04/14 00:13:08;;;;;;;2.70;1.50;;;;;;;5.98;53.25;102252.13;685222;28;22528;-55
2021/04/14 00:13:34;;;;;;;2.92;1.60;;;;;;;5.97;53.41;102259.28;683926;28;69183;-54
2021/04/14 00:13:55;;;;;;;2.65;1.58;;;;;;;5.97;53.35;102247.72;681413;28;138508;-50
2021/04/14 00:14:17;;;;;;;2.17;1.70;;;;;;;5.97;53.25;102250.38;686188;28;23435;-55
2021/04/14 00:14:39;;;;;;;1.95;1.77;;;;;;;5.97;53.25;102248.56;686280;28;46259;-53
2021/04/14 00:15:00;;;;;;;2.22;1.70;;;;;;;5.96;53.25;102246.84;688535;28;40296;-50
2021/04/14 00:15:25;;;;;;;2.10;1.60;;;;;;;5.96;53.22;102252.19;688549;28;20865;-53
2021/04/14 00:15:49;;;;;;;2.25;1.55;;;;;;;5.96;53.21;102257.56;685163;28;115511;-54
2021/04/14 00:16:12;;;;;;;2.58;1.70;;;;;;;5.97;52.97;102251.25;688340;28;15025;-53
2021/04/14 00:16:33;;;;;;;2.45;1.80;;;;;;;5.95;52.95;102247.78;685723;28;68680;-53
2021/04/14 00:16:55;;;;;;;2.53;1.73;;;;;;;5.94;52.62;102252.31;687599;28;23944;-55
2021/04/14 00:17:17;;;;;;;2.72;1.77;;;;;;;5.92;53.00;102246.19;689176;28;1994;-50
2021/04/14 00:17:39;;;;;;;2.13;1.98;;;;;;;5.95;53.08;102251.31;688856;28;930;-54
2021/04/14 00:18:02;;;;;;;2.28;1.90;;;;;;;5.95;52.98;102253.16;689868;28;1060;-55
2021/04/14 00:18:23;;;;;;;3.33;1.90;;;;;;;5.92;52.87;102248.88;689698;28;882;-56
2021/04/14 00:18:45;;;;;;;3.50;1.70;;;;;;;5.92;53.00;102251.56;688580;28;44333;-56
2021/04/14 00:19:07;;;;;;;2.03;1.55;;;;;;;5.94;53.17;102246.94;688669;28;20959;-55
2021/04/14 00:19:29;;;;;;;1.92;1.58;;;;;;;5.94;53.16;102249.63;687885;28;21515;-52
2021/04/14 00:19:50;;;;;;;2.75;1.60;;;;;;;5.94;53.15;102252.31;688091;28;37126;-55
2021/04/14 00:20:12;;;;;;;3.15;1.80;;;;;;;5.96;53.26;102249.50;687850;28;19509;-50
2021/04/14 00:20:34;;;;;;;3.50;1.80;;;;;;;5.97;53.08;102243.19;688329;28;47468;-55
2021/04/14 00:20:55;;;;;;;2.55;1.60;;;;;;;5.98;53.12;102242.25;687772;28;45329;-51
2021/04/14 00:21:19;;;;;;;2.95;1.77;;;;;;;5.99;52.96;102252.00;688409;28;19425;-55
2021/04/14 00:21:40;;;;;;;2.03;1.75;;;;;;;5.99;53.03;102243.97;684871;28;110231;-55
2021/04/14 00:22:02;;;;;;;3.50;1.60;;;;;;;5.99;53.00;102248.44;686456;28;40743;-52
2021/04/14 00:22:23;;;;;;;4.78;1.70;;;;;;;6.00;52.91;102250.19;688988;28;23870;-52
2021/04/14 00:22:45;;;;;;;2.65;1.63;;;;;;;6.00;52.89;102251.03;688520;28;22526;-51
2021/04/14 00:23:07;;;;;;;2.40;1.55;;;;;;;6.02;52.84;102249.09;688499;28;29706;-54
2021/04/14 00:23:28;;;;;;;2.53;1.60;;;;;;;6.01;52.44;102247.38;687422;28;46450;-55
2021/04/14 00:23:50;;;;;;;3.25;1.85;;;;;;;6.01;52.70;102250.06;688380;28;22820;-54
2021/04/14 00:24:11;;;;;;;2.60;1.70;;;;;;;6.02;52.63;102249.09;688443;28;43031;-52
2021/04/14 00:24:36;;;;;;;2.50;1.50;;;;;;;6.02;52.66;102248.22;688212;28;22641;-53
2021/04/14 00:24:57;;;;;;;2.50;1.50;;;;;;;6.02;52.67;102246.44;685803;28;115283;-53
2021/04/14 00:25:24;;;;;;;3.17;1.90;;;;;;;6.03;52.59;102250.81;688657;28;21033;-54
2021/04/14 00:25:47;;;;;;;1.98;1.70;;;;;;;6.04;52.46;102251.69;684202;28;138760;-58
2021/04/14 00:26:10;;;;;;;2.80;1.60;;;;;;;6.05;52.63;102253.38;685891;28;69226;-50
2021/04/14 00:26:31;;;;;;;2.67;1.52;;;;;;;6.05;52.62;102250.69;687340;28;69526;-52
2021/04/14 00:26:52;;;;;;;2.75;1.70;;;;;;;6.07;52.81;102248.78;689833;28;10017;-54
2021/04/14 00:27:13;;;;;;;3.22;1.60;;;;;;;6.08;52.58;102250.47;688561;28;21530;-55
2021/04/14 00:27:36;;;;;;;3.92;1.60;;;;;;;6.05;52.24;102254.25;688569;28;22499;-55
2021/04/14 00:27:58;;;;;;;2.45;1.40;;;;;;;6.04;52.22;102249.84;686270;28;53916;-54
2021/04/14 00:28:21;;;;;;;4.07;1.52;;;;;;;6.05;52.37;102251.56;686683;28;46385;-55
2021/04/14 00:28:43;;;;;;;2.42;1.63;;;;;;;6.06;52.37;102249.72;686067;28;69214;-53
2021/04/14 00:29:05;;;;;;;2.95;1.90;;;;;;;6.04;52.83;102252.53;685073;28;44386;-55
2021/04/14 00:29:26;;;;;;;3.95;1.70;;;;;;;6.06;52.54;102247.91;684586;28;45256;-53
2021/04/14 00:29:47;;;;;;;3.05;1.60;;;;;;;6.07;52.46;102248.78;683189;28;22381;-57
2021/04/14 00:30:09;;;;;;;2.28;1.45;;;;;;;6.06;52.42;102253.25;684055;28;23498;-52
2021/04/14 00:30:31;;;;;;;2.60;1.50;;;;;;;6.06;52.45;102247.91;683254;28;45267;-55
2021/04/14 00:30:53;;;;;;;3.67;1.63;;;;;;;6.07;52.39;102246.94;683863;28;45280;-55
2021/04/14 00:31:15;;;;;;;2.80;1.60;;;;;;;6.07;52.16;102252.31;682332;28;46555;-55
2021/04/14 00:31:37;;;;;;;3.30;1.70;;;;;;;6.07;52.26;102241.56;683503;28;33835;-55
2021/04/14 00:31:59;;;;;;;2.42;1.63;;;;;;;6.07;52.09;102255.00;685287;28;18427;-53
2021/04/14 00:32:20;;;;;;;2.53;1.60;;;;;;;6.08;52.15;102255.84;684636;28;46392;-54
2021/04/14 00:32:41;;;;;;;3.60;1.60;;;;;;;6.07;52.00;102252.31;686343;28;7758;-53
2021/04/14 00:33:02;;;;;;;2.00;1.45;;;;;;;6.07;52.01;102254.16;686338;28;23488;-55
2021/04/14 00:33:23;;;;;;;2.50;1.70;;;;;;;6.07;52.03;102251.47;687435;28;20677;-53
2021/04/14 00:33:46;;;;;;;2.28;1.40;;;;;;;6.05;51.90;102256.94;688119;28;22857;-55
2021/04/14 00:34:09;;;;;;;1.90;1.63;;;;;;;6.06;51.99;102250.59;685304;28;65377;-55
2021/04/14 00:34:30;;;;;;;3.75;1.65;;;;;;;6.07;52.24;102252.31;685328;28;67057;-53
2021/04/14 00:34:51;;;;;;;2.15;1.50;;;;;;;6.08;52.26;102248.66;686947;28;23400;-54
2021/04/14 00:35:13;;;;;;;2.72;1.27;;;;;;;6.08;52.23;102247.78;687139;28;24326;-56
2021/04/14 00:35:35;;;;;;;1.92;1.50;;;;;;;6.06;51.95;102250.59;685790;28;47565;-54
2021/04/14 00:35:56;;;;;;;1.77;1.42;;;;;;;6.06;51.90;102247.91;686262;28;46161;-51
2021/04/14 00:36:17;;;;;;;3.10;1.58;;;;;;;6.06;52.15;102253.25;688889;28;13654;-51
2021/04/14 00:36:39;;;;;;;2.72;1.60;;;;;;;6.07;52.02;102254.16;688508;28;22401;-53
2021/04/14 00:37:00;;;;;;;1.85;1.63;;;;;;;6.07;52.10;102254.16;688191;28;42476;-54
2021/04/14 00:37:21;;;;;;;2.35;1.88;;;;;;;6.07;52.14;102255.00;688130;28;24345;-56
2021/04/14 00:37:42;;;;;;;3.58;1.80;;;;;;;6.07;52.06;102252.31;688173;28;21547;-53
2021/04/14 00:38:05;;;;;;;3.22;1.40;;;;;;;6.08;52.36;102253.16;688744;28;21544;-56
2021/04/14 00:38:26;;;;;;;2.90;1.60;;;;;;;6.08;52.03;102256.72;687213;28;70378;-54
2021/04/14 00:38:47;;;;;;;3.65;1.60;;;;;;;6.09;51.94;102249.50;687279;28;22408;-55
2021/04/14 00:39:12;;;;;;;5.10;2.00;;;;;;;6.09;51.87;102250.38;687319;28;21559;-54
2021/04/14 00:39:33;;;;;;;2.40;1.98;;;;;;;6.09;51.86;102247.69;685254;28;104450;-56
2021/04/14 00:39:55;;;;;;;1.92;1.70;;;;;;;6.09;51.76;102249.50;688107;28;22389;-52
2021/04/14 00:40:21;;;;;;;2.90;1.70;;;;;;;6.09;51.90;102247.69;688079;28;44373;-53
2021/04/14 00:40:44;;;;;;;1.70;1.60;;;;;;;6.10;51.90;102248.56;683938;28;138799;-51
2021/04/14 00:41:07;;;;;;;3.08;1.80;;;;;;;6.09;51.89;102255.72;686853;28;69515;-56
2021/04/14 00:41:29;;;;;;;6.35;1.98;;;;;;;6.10;51.79;102249.41;686103;28;92211;-53
2021/04/14 00:41:52;;;;;;;6.65;2.10;;;;;;;6.08;51.79;102248.66;687866;28;21739;-55
2021/04/14 00:42:13;;;;;;;1.92;1.80;;;;;;;6.10;51.87;102245.88;686513;28;90271;-55
2021/04/14 00:42:34;;;;;;;2.50;1.90;;;;;;;6.09;51.97;102250.38;685128;28;45360;-54
2021/04/14 00:42:57;;;;;;;1.90;1.80;;;;;;;6.09;51.75;102247.69;685444;28;23413;-53
2021/04/14 00:43:20;;;;;;;2.03;1.75;;;;;;;6.11;52.02;102247.56;684885;28;46435;-55
2021/04/14 00:43:41;;;;;;;3.03;1.75;;;;;;;6.11;51.77;102244.88;684052;28;67527;-53
2021/04/14 00:44:03;;;;;;;1.95;1.50;;;;;;;6.12;52.01;102251.97;682509;28;22395;-52
2021/04/14 00:44:25;;;;;;;3.33;1.50;;;;;;;6.13;51.82;102245.66;683326;28;45247;-55
2021/04/14 00:44:47;;;;;;;3.05;1.60;;;;;;;6.11;51.56;102243.09;685163;28;46306;-55
2021/04/14 00:45:10;;;;;;;1.67;1.50;;;;;;;6.10;51.64;102241.34;684272;28;67527;-56
2021/04/14 00:45:31;;;;;;;2.28;1.63;;;;;;;6.12;51.67;102243.94;684957;28;44113;-51
2021/04/14 00:45:52;;;;;;;2.95;1.60;;;;;;;6.12;51.84;102247.47;687385;28;1076;-54
2021/04/14 00:46:14;;;;;;;3.60;1.83;;;;;;;6.13;51.85;102242.97;689585;28;1196;-51
2021/04/14 00:46:35;;;;;;;3.10;1.70;;;;;;;6.13;51.61;102243.81;686490;28;46000;-57
2021/04/14 00:46:56;;;;;;;2.15;1.60;;;;;;;6.13;51.88;102251.03;688477;28;12555;-53
2021/04/14 00:47:18;;;;;;;3.25;1.58;;;;;;;6.13;51.71;102248.34;688713;28;19361;-54
2021/04/14 00:47:39;;;;;;;2.08;1.80;;;;;;;6.12;51.62;102251.97;689261;28;4259;-54
2021/04/14 00:48:00;;;;;;;4.07;1.98;;;;;;;6.11;51.72;102243.09;688519;28;23265;-55
2021/04/14 00:48:22;;;;;;;2.00;1.77;;;;;;;6.12;51.70;102249.28;688512;28;23656;-51
2021/04/14 00:48:43;;;;;;;1.65;1.55;;;;;;;6.10;51.66;102246.72;687629;28;46663;-51
2021/04/14 00:49:05;;;;;;;3.38;1.67;;;;;;;6.10;51.54;102252.09;688925;28;24470;-55
2021/04/14 00:49:27;;;;;;;3.33;1.67;;;;;;;6.09;51.53;102253.03;687340;28;47310;-57
2021/04/14 00:49:51;;;;;;;1.75;1.60;;;;;;;6.11;51.66;102250.25;687328;28;45579;-52
2021/04/14 00:50:16;;;;;;;3.28;1.85;;;;;;;6.13;51.57;102242.97;687620;28;36386;-52
2021/04/14 00:50:38;;;;;;;4.18;1.90;;;;;;;6.12;51.22;102247.47;686106;28;92293;-53
2021/04/14 00:51:01;;;;;;;4.95;1.77;;;;;;;6.13;51.68;102242.97;687737;28;46363;-54
2021/04/14 00:51:25;;;;;;;2.65;1.38;;;;;;;6.12;51.50;102247.47;682914;28;92401;-55
2021/04/14 00:51:47;;;;;;;2.85;1.50;;;;;;;6.11;51.67;102240.41;681812;28;65731;-53
2021/04/14 00:52:09;;;;;;;3.85;1.95;;;;;;;6.10;51.54;102246.72;678573;28;67473;-55
2021/04/14 00:52:30;;;;;;;3.15;1.85;;;;;;;6.10;51.58;102248.56;680688;29;18971;-56
2021/04/14 00:52:52;;;;;;;3.97;1.80;;;;;;;6.09;51.53;102238.78;680466;29;11201;-55
2021/04/14 00:53:14;;;;;;;2.08;1.60;;;;;;;6.09;51.60;102244.16;681042;28;46385;-50
2021/04/14 00:53:35;;;;;;;3.92;1.73;;;;;;;6.08;51.56;102253.16;683369;28;44154;-55
2021/04/14 00:53:56;;;;;;;3.47;1.70;;;;;;;6.07;51.75;102244.25;686477;28;22521;-57
2021/04/14 00:54:17;;;;;;;1.50;1.30;;;;;;;6.08;51.60;102247.78;688671;28;15704;-54
2021/04/14 00:54:39;;;;;;;2.43;1.40;;;;;;;6.06;51.54;102242.53;687208;28;22251;-53
2021/04/14 00:55:00;;;;;;;3.10;1.60;;;;;;;6.06;51.78;102247.06;684803;28;46384;-55
2021/04/14 00:55:23;;;;;;;2.30;1.50;;;;;;;6.04;51.55;102244.47;685912;28;23514;-57
2021/04/14 00:55:45;;;;;;;2.28;1.60;;;;;;;6.03;51.69;102241.91;684002;28;69446;-53
2021/04/14 00:56:07;;;;;;;2.47;1.75;;;;;;;6.02;51.56;102246.44;685371;28;45682;-55
2021/04/14 00:56:28;;;;;;;2.90;1.63;;;;;;;6.02;51.64;102245.53;684709;28;47427;-56
2021/04/14 00:56:49;;;;;;;3.10;1.80;;;;;;;6.00;51.67;102242.97;686596;28;22403;-54
2021/04/14 00:57:10;;;;;;;2.50;1.63;;;;;;;6.00;51.88;102244.81;688843;28;21802;-54
2021/04/14 00:57:31;;;;;;;2.42;1.58;;;;;;;5.98;51.89;102242.25;685404;28;21523;-55
2021/04/14 00:57:52;;;;;;;3.28;1.70;;;;;;;5.97;51.66;102234.31;686233;28;24355;-54
2021/04/14 00:58:13;;;;;;;2.92;1.70;;;;;;;5.95;51.84;102242.44;686267;28;13677;-52
2021/04/14 00:58:34;;;;;;;2.63;1.90;;;;;;;5.94;51.91;102240.69;684640;28;44609;-57
2021/04/14 00:58:56;;;;;;;1.95;1.48;;;;;;;5.94;51.92;102246.06;685929;28;16564;-56
2021/04/14 00:59:17;;;;;;;4.07;1.50;;;;;;;5.92;51.94;102240.84;682632;28;21534;-59
2021/04/14 00:59:38;;;;;;;3.63;1.50;;;;;;;5.91;52.12;102241.78;684956;28;21028;-54
2021/04/14 00:59:59;;;;;;;2.95;1.55;;;;;;;5.92;51.93;102246.19;686202;28;3525;-51
2021/04/14 01:00:29;;;;;;;4.07;1.55;;;;;;;5.92;51.97;102248.00;684505;28;46265;-53
2021/04/14 01:00:52;;;;;;;1.67;1.30;;;;;;;5.92;51.86;102248.88;682037;28;123600;-52
2021/04/14 01:01:14;;;;;;;1.67;1.55;;;;;;;5.92;51.88;102239.97;683296;28;91237;-53
2021/04/14 01:01:35;;;;;;;2.90;1.60;;;;;;;5.91;51.88;102241.78;685834;28;21651;-56
2021/04/14 01:01:57;;;;;;;2.10;1.50;;;;;;;5.90;51.94;102244.59;685509;28;22437;-54
2021/04/14 01:02:18;;;;;;;1.77;1.60;;;;;;;5.89;52.15;102242.88;684527;28;46401;-53
2021/04/14 01:02:39;;;;;;;2.40;1.65;;;;;;;5.88;52.12;102247.38;684790;28;22403;-53
2021/04/14 01:03:01;;;;;;;2.72;1.60;;;;;;;5.89;52.14;102251.78;685438;28;24449;-58
2021/04/14 01:03:24;;;;;;;2.90;1.50;;;;;;;5.89;52.12;102243.75;685131;28;44369;-56
2021/04/14 01:03:45;;;;;;;4.70;1.88;;;;;;;5.88;52.04;102247.38;683886;28;69912;-56
2021/04/14 01:04:06;;;;;;;3.30;1.80;;;;;;;5.88;51.91;102249.22;685410;28;22405;-55
2021/04/14 01:04:27;;;;;;;4.03;1.77;;;;;;;5.88;52.20;102246.53;685720;28;23487;-54
2021/04/14 01:04:48;;;;;;;3.15;1.58;;;;;;;5.85;52.02;102242.22;686177;28;17284;-56
2021/04/14 01:05:12;;;;;;;2.38;1.63;;;;;;;5.87;52.16;102247.47;685264;28;46370;-56
2021/04/14 01:05:36;;;;;;;1.50;1.40;;;;;;;5.87;52.16;102245.66;683297;28;69449;-58
2021/04/14 01:05:58;;;;;;;3.30;1.50;;;;;;;5.87;52.32;102258.22;683293;28;92299;-54
2021/04/14 01:06:23;;;;;;;3.30;1.65;;;;;;;5.86;52.08;102251.13;685568;28;36275;-53
2021/04/14 01:06:44;;;;;;;2.35;1.58;;;;;;;5.84;52.08;102255.75;682571;28;115246;-55
2021/04/14 01:07:06;;;;;;;1.98;1.50;;;;;;;5.84;52.09;102255.75;685996;28;21544;-55
2021/04/14 01:07:27;;;;;;;3.30;1.70;;;;;;;5.84;52.41;102250.38;684439;28;46353;-56
2021/04/14 01:07:48;;;;;;;3.60;1.83;;;;;;;5.83;52.31;102245.97;685519;28;23436;-53
2021/04/14 01:08:09;;;;;;;1.92;1.50;;;;;;;5.82;52.42;102242.44;685303;28;23427;-55
2021/04/14 01:08:31;;;;;;;2.40;1.50;;;;;;;5.82;52.18;102253.19;686126;28;23081;-55
2021/04/14 01:08:53;;;;;;;2.25;1.35;;;;;;;5.81;52.23;102251.44;685050;28;46344;-55
2021/04/14 01:09:14;;;;;;;3.28;1.73;;;;;;;5.81;52.33;102248.78;684943;28;46419;-52
2021/04/14 01:09:35;;;;;;;3.15;2.00;;;;;;;5.81;52.57;102245.25;685596;28;21553;-52
2021/04/14 01:09:56;;;;;;;3.80;1.90;;;;;;;5.81;52.45;102245.25;685795;28;18152;-54
2021/04/14 01:10:17;;;;;;;3.17;1.65;;;;;;;5.82;52.38;102249.66;686512;28;4096;-51
2021/04/14 01:10:38;;;;;;;3.15;1.70;;;;;;;5.81;52.39;102245.25;684677;28;45113;-54
2021/04/14 01:11:00;;;;;;;3.92;1.67;;;;;;;5.81;52.28;102253.28;685914;28;23496;-50
2021/04/14 01:11:22;;;;;;;2.67;1.60;;;;;;;5.80;52.27;102243.50;684544;28;23419;-53
2021/04/14 01:11:43;;;;;;;2.22;1.50;;;;;;;5.80;52.29;102248.88;685330;28;46470;-50
2021/04/14 01:12:06;;;;;;;3.20;1.63;;;;;;;5.80;52.33;102251.56;685197;28;23436;-53
2021/04/14 01:12:27;;;;;;;4.32;1.70;;;;;;;5.80;52.30;102248.88;684367;28;62481;-52
2021/04/14 01:12:48;;;;;;;2.88;1.55;;;;;;;5.79;52.38;102248.03;686242;28;16825;-54
2021/04/14 01:13:10;;;;;;;4.25;1.80;;;;;;;5.78;52.40;102247.19;684780;28;19856;-53
2021/04/14 01:13:31;;;;;;;3.00;1.52;;;;;;;5.80;52.38;102246.19;685175;28;44577;-52
2021/04/14 01:13:53;;;;;;;2.30;1.58;;;;;;;5.78;52.50;102241.81;685545;28;24214;-54
2021/04/14 01:14:14;;;;;;;2.85;1.75;;;;;;;5.79;52.47;102234.63;686298;28;23517;-50
2021/04/14 01:14:35;;;;;;;3.03;1.80;;;;;;;5.80;52.51;102249.75;684975;28;41151;-54
2021/04/14 01:14:57;;;;;;;3.47;2.00;;;;;;;5.80;52.58;102243.50;686122;28;22470;-55
2021/04/14 01:15:26;;;;;;;3.65;2.08;;;;;;;5.80;52.21;102241.72;685811;28;24407;-49
2021/04/14 01:15:49;;;;;;;3.15;1.50;;;;;;;5.78;52.32;102248.97;682179;28;131445;-54
2021/04/14 01:16:10;;;;;;;3.28;1.67;;;;;;;5.79;52.35;102248.03;684438;28;67528;-52
2021/04/14 01:16:31;;;;;;;3.40;1.63;;;;;;;5.81;52.39;102247.91;685242;28;43669;-54
2021/04/14 01:16:52;;;;;;;2.60;1.60;;;;;;;5.81;52.39;102248.78;685623;28;23724;-49
2021/04/14 01:17:14;;;;;;;3.78;1.60;;;;;;;5.80;52.42;102249.75;686015;28;23517;-51
2021/04/14 01:17:35;;;;;;;2.63;1.70;;;;;;;5.80;52.35;102244.41;685256;28;23424;-51
2021/04/14 01:17:56;;;;;;;2.90;1.60;;;;;;;5.81;52.41;102250.59;685974;28;21543;-50
2021/04/14 01:18:19;;;;;;;3.92;1.73;;;;;;;5.80;52.35;102251.56;685853;28;21537;-54
2021/04/14 01:18:41;;;;;;;2.55;1.52;;;;;;;5.80;52.38;102249.75;684283;28;89947;-52
2021/04/14 01:19:02;;;;;;;1.35;1.30;;;;;;;5.81;52.45;102253.28;687040;28;22580;-53
2021/04/14 01:19:23;;;;;;;1.40;1.30;;;;;;;5.81;52.46;102247.91;685369;28;47238;-55
2021/04/14 01:19:45;;;;;;;2.60;1.55;;;;;;;5.78;52.40;102243.63;686290;28;21470;-50
2021/04/14 01:20:07;;;;;;;3.83;1.60;;;;;;;5.79;52.70;102250.72;686649;28;22408;-52
2021/04/14 01:20:28;;;;;;;1.67;1.50;;;;;;;5.78;52.66;102248.97;685585;28;44152;-54
2021/04/14 01:20:50;;;;;;;2.28;1.35;;;;;;;5.76;52.57;102248.25;685638;28;22416;-54
2021/04/14 01:21:18;;;;;;;2.88;1.67;;;;;;;5.77;52.64;102242.78;685203;28;45253;-55
2021/04/14 01:21:42;;;;;;;3.03;1.80;;;;;;;5.77;52.51;102248.13;681640;28;138134;-54
2021/04/14 01:22:03;;;;;;;3.38;1.60;;;;;;;5.76;52.44;102243.72;681840;28;89833;-53
2021/04/14 01:22:24;;;;;;;2.30;1.48;;;;;;;5.76;52.52;102248.25;684530;28;22405;-54
2021/04/14 01:22:46;;;;;;;2.60;1.50;;;;;;;5.75;52.60;102243.84;686049;28;20311;-54
2021/04/14 01:23:07;;;;;;;1.77;1.60;;;;;;;5.73;52.50;102252.00;685350;28;34766;-55
2021/04/14 01:23:31;;;;;;;2.70;1.58;;;;;;;5.72;52.64;102252.97;685113;28;45222;-52
2021/04/14 01:23:52;;;;;;;3.65;1.50;;;;;;;5.72;52.57;102252.09;683953;28;69446;-51
2021/04/14 01:24:15;;;;;;;3.53;1.63;;;;;;;5.73;52.54;102243.09;685784;28;22225;-54
2021/04/14 01:24:36;;;;;;;3.45;1.80;;;;;;;5.71;52.57;102240.53;680648;28;78635;-53
2021/04/14 01:24:58;;;;;;;3.72;1.73;;;;;;;5.71;52.59;102245.88;680029;29;22396;-53
2021/04/14 01:25:21;;;;;;;3.30;1.70;;;;;;;5.70;52.78;102244.16;680866;28;22461;-51
2021/04/14 01:25:43;;;;;;;1.65;1.42;;;;;;;5.70;52.80;102243.31;678389;28;92459;-53
2021/04/14 01:26:05;;;;;;;2.08;1.65;;;;;;;5.69;52.87;102246.94;681770;28;46419;-52
2021/04/14 01:26:27;;;;;;;2.38;1.50;;;;;;;5.68;52.80;102246.09;684853;28;1023;-51
2021/04/14 01:26:49;;;;;;;3.47;1.98;;;;;;;5.68;52.84;102251.47;685448;28;23464;-50
2021/04/14 01:27:10;;;;;;;2.83;1.88;;;;;;;5.69;52.98;102249.63;684847;28;43194;-52
2021/04/14 01:27:31;;;;;;;1.77;1.60;;;;;;;5.68;52.86;102243.41;685867;28;21963;-55
2021/04/14 01:27:52;;;;;;;2.80;1.60;;;;;;;5.67;52.87;102244.38;685733;28;22388;-55
2021/04/14 01:28:16;;;;;;;2.47;1.50;;;;;;;5.67;52.84;102246.22;685052;28;44119;-52
2021/04/14 01:28:39;;;;;;;2.58;1.50;;;;;;;5.67;52.89;102246.22;684010;28;70237;-56
2021/04/14 01:29:00;;;;;;;2.40;1.60;;;;;;;5.65;53.00;102240.97;684064;28;67507;-51
2021/04/14 01:29:21;;;;;;;1.80;1.45;;;;;;;5.67;52.98;102244.38;685578;28;22392;-53
2021/04/14 01:29:42;;;;;;;2.72;1.70;;;;;;;5.68;53.01;102237.22;685724;28;22409;-53
2021/04/14 01:30:07;;;;;;;3.05;1.70;;;;;;;5.67;53.06;102241.69;685761;28;23460;-55
2021/04/14 01:30:29;;;;;;;3.33;1.55;;;;;;;5.68;52.92;102246.09;682372;28;113649;-56
2021/04/14 01:30:52;;;;;;;2.90;1.25;;;;;;;5.67;52.87;102240.84;684727;28;46309;-51
2021/04/14 01:31:15;;;;;;;4.78;1.52;;;;;;;5.68;52.97;102247.94;683280;28;90742;-53
2021/04/14 01:31:37;;;;;;;4.43;1.80;;;;;;;5.69;52.91;102246.94;683992;28;69512;-56
2021/04/14 01:31:58;;;;;;;2.15;1.75;;;;;;;5.68;52.99;102240.75;685336;28;23457;-51
2021/04/14 01:32:19;;;;;;;2.28;1.55;;;;;;;5.70;53.05;102238.81;686348;28;12374;-55
2021/04/14 01:32:40;;;;;;;4.03;1.85;;;;;;;5.70;53.19;102235.28;685420;28;30865;-51
2021/04/14 01:33:02;;;;;;;2.20;1.60;;;;;;;5.69;52.99;102242.47;685455;28;14937;-56
2021/04/14 01:33:24;;;;;;;3.83;1.52;;;;;;;5.70;53.02;102246.00;685898;28;23462;-56
2021/04/14 01:33:46;;;;;;;1.70;1.50;;;;;;;5.71;52.82;102239.69;683417;28;67344;-54
2021/04/14 01:34:11;;;;;;;4.03;1.67;;;;;;;5.69;52.87;102241.59;684431;28;23438;-55
2021/04/14 01:34:32;;;;;;;2.35;1.70;;;;;;;5.71;53.01;102237.00;681920;28;113576;-52
2021/04/14 01:34:53;;;;;;;3.53;1.52;;;;;;;5.71;53.06;102245.03;685688;28;22155;-53
2021/04/14 01:35:14;;;;;;;3.67;1.52;;;;;;;5.70;53.07;102238.81;685896;28;23489;-52
2021/04/14 01:35:36;;;;;;;2.28;1.50;;;;;;;5.70;52.89;102241.47;685036;28;47933;-53
2021/04/14 01:35:58;;;;;;;1.98;1.52;;;;;;;5.69;52.92;102237.09;685644;28;22409;-52
2021/04/14 01:36:19;;;;;;;2.30;1.50;;;;;;;5.68;52.92;102232.69;684903;28;44374;-51
2021/04/14 01:36:41;;;;;;;2.17;1.70;;;;;;;5.69;52.92;102237.09;686138;28;23430;-56
2021/04/14 01:37:02;;;;;;;2.45;1.70;;;;;;;5.68;52.98;102230.00;684876;28;47396;-54
2021/04/14 01:37:23;;;;;;;2.50;1.70;;;;;;;5.68;52.96;102237.22;685923;28;22409;-50
2021/04/14 01:37:47;;;;;;;3.88;1.60;;;;;;;5.66;53.06;102234.63;684867;28;46120;-53
2021/04/14 01:38:08;;;;;;;4.15;1.70;;;;;;;5.65;52.98;102240.97;683998;28;67471;-53
2021/04/14 01:38:29;;;;;;;3.17;1.63;;;;;;;5.64;53.12;102239.22;686242;28;14792;-52
2021/04/14 01:38:51;;;;;;;2.72;1.48;;;;;;;5.63;53.21;102237.53;684898;28;45336;-52
2021/04/14 01:39:13;;;;;;;1.65;1.55;;;;;;;5.62;53.22;102232.28;685289;28;21557;-55
2021/04/14 01:39:34;;;;;;;3.83;1.52;;;;;;;5.62;53.26;102241.16;684252;28;46281;-54
2021/04/14 01:39:55;;;;;;;3.60;1.95;;;;;;;5.61;53.32;102236.75;685562;28;23481;-55
2021/04/14 01:40:17;;;;;;;2.92;1.60;;;;;;;5.60;53.24;102238.59;685954;28;22438;-51
2021/04/14 01:40:39;;;;;;;1.75;1.48;;;;;;;5.60;53.37;102233.25;683761;28;69453;-50
2021/04/14 01:41:02;;;;;;;2.42;1.70;;;;;;;5.59;53.26;102236.03;685818;28;17409;-54
2021/04/14 01:41:24;;;;;;;2.15;1.70;;;;;;;5.57;53.36;102232.59;684074;28;69474;-53
2021/04/14 01:41:45;;;;;;;2.80;1.60;;;;;;;5.58;53.56;102239.69;684369;28;63842;-51
2021/04/14 01:42:07;;;;;;;2.97;1.45;;;;;;;5.56;53.52;102234.44;685307;28;20250;-53
2021/04/14 01:42:28;;;;;;;3.10;1.65;;;;;;;5.58;53.75;102234.34;684354;28;19465;-52
2021/04/14 01:42:50;;;;;;;3.45;1.65;;;;;;;5.57;53.67;102232.59;685712;28;21042;-49
2021/04/14 01:43:11;;;;;;;3.88;1.70;;;;;;;5.56;53.64;102234.44;682280;28;37851;-52
2021/04/14 01:43:33;;;;;;;1.77;1.63;;;;;;;5.58;53.69;102237.84;682369;28;18062;-54
2021/04/14 01:43:54;;;;;;;2.13;1.63;;;;;;;5.57;53.41;102233.44;681664;28;58046;-56
2021/04/14 01:44:16;;;;;;;2.00;1.80;;;;;;;5.57;53.55;102232.59;682094;28;1659;-56
2021/04/14 01:44:38;;;;;;;1.70;1.60;;;;;;;5.59;53.60;102238.72;682680;28;20829;-52